Terminal Aerodrome Forecast
Issued by NWS

Home | Current Version | Previous Version | Text Only | Print | Product List | Glossary On
Versions: 1 2 3 4 5 6 7 8 9 10 11 12 13 14 15 16 17 18 19 20 21 22 23 24
000
FTUS44 KMAF 162300
TAFCNM
TAF
KCNM 162332Z 1700/1724 06008KT P6SM SCT050 BKN150
     FM170800 11006KT P6SM BKN015
     FM171800 17007KT P6SM -SHRA SCT030 BKN080=

USA.gov is the U.S. government's official web portal to all federal, state and local government web resources and services.